createdAt,value
2022-08-02T00:00:42.283Z,18.4
2022-08-02T00:01:42.397Z,18.4
2022-08-02T00:02:47.333Z,18.4
2022-08-02T00:03:48.320Z,18.3
2022-08-02T00:04:42.418Z,18.3
2022-08-02T00:05:42.440Z,18.3
2022-08-02T00:06:42.711Z,18.3
2022-08-02T00:07:42.586Z,18.3
2022-08-02T00:08:51.516Z,18.3
2022-08-02T00:09:42.627Z,18.2
2022-08-02T00:10:43.006Z,18.1
2022-08-02T00:11:43.132Z,18
2022-08-02T00:12:42.988Z,17.9
2022-08-02T00:14:04.356Z,17.9
2022-08-02T00:15:08.685Z,18
2022-08-02T00:15:42.901Z,18.2
2022-08-02T00:16:43.891Z,18.3
2022-08-02T00:17:43.068Z,18.1
2022-08-02T00:18:43.125Z,18.2
2022-08-02T00:19:43.444Z,18.2
2022-08-02T00:20:58.354Z,18.1
2022-08-02T00:21:43.564Z,18.1
2022-08-02T00:22:43.437Z,18.2
2022-08-02T00:24:04.981Z,18.2
2022-08-02T00:24:43.669Z,18.2
2022-08-02T00:25:54.285Z,18.2
2022-08-02T00:26:53.790Z,18.3
2022-08-02T00:27:43.825Z,18.2
2022-08-02T00:28:43.958Z,18.3
2022-08-02T00:29:52.322Z,18.2
2022-08-02T00:30:44.073Z,18.2
2022-08-02T00:31:44.034Z,18.2
2022-08-02T00:33:01.399Z,18.2
2022-08-02T00:34:04.830Z,18.2
2022-08-02T00:34:44.210Z,18.2
2022-08-02T00:35:44.306Z,18.2
2022-08-02T00:36:44.470Z,18.1
2022-08-02T00:37:44.403Z,18.1
2022-08-02T00:39:03.215Z,18.1
2022-08-02T00:39:44.544Z,18
2022-08-02T00:40:44.693Z,18.1
2022-08-02T00:41:44.657Z,18
2022-08-02T00:42:44.669Z,18
2022-08-02T00:43:51.510Z,18
2022-08-02T00:45:02.460Z,18.1
2022-08-02T00:45:58.916Z,18.1
2022-08-02T00:46:44.857Z,18.1
2022-08-02T00:47:44.913Z,18
2022-08-02T00:48:45.013Z,17.9
2022-08-02T00:49:45.018Z,17.9
2022-08-02T00:51:03.660Z,17.9
2022-08-02T00:51:45.419Z,17.9
2022-08-02T00:52:45.380Z,17.9
2022-08-02T00:53:52.043Z,17.8
2022-08-02T00:54:45.355Z,17.9
2022-08-02T00:55:45.198Z,17.9
2022-08-02T00:57:03.909Z,18
2022-08-02T00:57:45.541Z,17.9
2022-08-02T00:58:45.380Z,18
2022-08-02T00:59:45.389Z,17.9
2022-08-02T01:00:45.363Z,17.9
2022-08-02T01:01:56.863Z,18
2022-08-02T01:03:09.900Z,17.9
2022-08-02T01:03:55.147Z,17.9
2022-08-02T01:04:45.491Z,17.8
2022-08-02T01:06:10.390Z,17.8
2022-08-02T01:06:45.584Z,17.8
2022-08-02T01:07:45.622Z,17.8
2022-08-02T01:09:19.836Z,17.7
2022-08-02T01:09:34.908Z,17.7
2022-08-02T01:09:45.679Z,17.7
2022-08-02T01:10:45.724Z,17.9
2022-08-02T01:11:50.449Z,17.9
2022-08-02T01:12:45.926Z,17.9
2022-08-02T01:14:31.107Z,18
2022-08-02T01:15:09.324Z,17.9
2022-08-02T01:16:06.005Z,17.8
2022-08-02T01:16:46.530Z,17.8
2022-08-02T01:18:06.129Z,17.8
2022-08-02T01:18:55.005Z,17.8
2022-08-02T01:19:46.009Z,17.8
2022-08-02T01:21:37.123Z,17.8
2022-08-02T01:23:00.409Z,17.7
2022-08-02T01:23:06.068Z,17.6
2022-08-02T01:23:46.392Z,17.6
2022-08-02T01:24:46.253Z,17.6
2022-08-02T01:25:46.479Z,17.6
2022-08-02T01:26:46.561Z,17.6
2022-08-02T01:27:46.420Z,17.5
2022-08-02T01:28:47.357Z,17.4
2022-08-02T01:29:46.552Z,17.5
2022-08-02T01:30:46.612Z,17.6
2022-08-02T01:31:46.697Z,17.8
2022-08-02T01:32:46.784Z,17.8
2022-08-02T01:33:47.121Z,17.7
2022-08-02T01:34:46.892Z,17.7
2022-08-02T01:35:50.469Z,17.6
2022-08-02T01:36:47.379Z,17.8
2022-08-02T01:37:51.498Z,17.8
2022-08-02T01:38:47.366Z,17.8
2022-08-02T01:39:47.248Z,17.8
2022-08-02T01:40:47.324Z,17.7
2022-08-02T01:41:47.380Z,17.6
2022-08-02T01:42:47.719Z,17.7
2022-08-02T01:43:47.507Z,17.7
2022-08-02T01:44:47.548Z,17.7
2022-08-02T01:45:47.600Z,17.7
2022-08-02T01:46:47.649Z,17.7
2022-08-02T01:47:47.692Z,17.7
2022-08-02T01:48:47.730Z,17.6
2022-08-02T01:49:47.817Z,17.7
2022-08-02T01:50:48.111Z,17.7
2022-08-02T01:51:47.943Z,17.5
2022-08-02T01:52:53.339Z,17.2
2022-08-02T01:53:48.164Z,17.1
2022-08-02T01:54:48.205Z,17
2022-08-02T01:55:57.280Z,17.1
2022-08-02T01:56:48.379Z,17.1
2022-08-02T01:57:48.279Z,17.2
2022-08-02T01:58:48.357Z,17.2
2022-08-02T02:00:05.231Z,17.3
2022-08-02T02:00:47.854Z,17.3
2022-08-02T02:00:48.511Z,17.3
2022-08-02T02:01:48.501Z,17.2
2022-08-02T02:02:48.642Z,17.1
2022-08-02T02:03:48.593Z,17
2022-08-02T02:04:48.595Z,16.9
2022-08-02T02:05:48.637Z,16.9
2022-08-02T02:06:49.054Z,16.8
2022-08-02T02:07:48.712Z,16.8
2022-08-02T02:08:48.900Z,16.8
2022-08-02T02:09:50.910Z,16.8
2022-08-02T02:10:52.289Z,16.8
2022-08-02T02:12:03.307Z,16.7
2022-08-02T02:12:48.821Z,16.6
2022-08-02T02:13:48.901Z,16.6
2022-08-02T02:14:49.256Z,16.6
2022-08-02T02:15:48.929Z,16.6
2022-08-02T02:16:49.459Z,16.6
2022-08-02T02:18:12.219Z,16.7
2022-08-02T02:18:54.118Z,16.9
2022-08-02T02:19:54.189Z,17
2022-08-02T02:20:49.849Z,17
2022-08-02T02:21:55.191Z,17
2022-08-02T02:22:54.580Z,16.9
2022-08-02T02:23:51.035Z,16.9
2022-08-02T02:24:49.474Z,17
2022-08-02T02:25:49.458Z,17
2022-08-02T02:26:52.186Z,17.1
2022-08-02T02:27:49.583Z,17.1
2022-08-02T02:28:49.588Z,17
2022-08-02T02:32:30.571Z,17.1
2022-08-02T02:32:49.723Z,17.1
2022-08-02T02:33:49.873Z,17
2022-08-02T02:34:49.756Z,17
2022-08-02T02:35:49.775Z,17
2022-08-02T02:36:49.775Z,17
2022-08-02T02:37:49.825Z,17
2022-08-02T02:38:49.877Z,17
2022-08-02T02:39:49.943Z,17
2022-08-02T02:40:49.976Z,17
2022-08-02T02:41:50.054Z,16.8
2022-08-02T02:42:50.144Z,16.9
2022-08-02T02:43:50.231Z,16.9
2022-08-02T02:44:50.256Z,16.8
2022-08-02T02:45:50.346Z,16.8
2022-08-02T02:46:50.414Z,16.7
2022-08-02T02:47:50.466Z,16.6
2022-08-02T02:48:50.613Z,16.6
2022-08-02T02:49:50.602Z,16.7
2022-08-02T02:50:50.691Z,16.7
2022-08-02T02:51:50.801Z,16.6
2022-08-02T02:52:50.824Z,16.8
2022-08-02T02:54:26.524Z,16.8
2022-08-02T02:54:50.973Z,16.8
2022-08-02T02:56:02.131Z,16.7
2022-08-02T02:56:51.066Z,16.7
2022-08-02T02:57:51.131Z,16.8
2022-08-02T02:58:51.181Z,16.8
2022-08-02T02:59:51.269Z,16.8
2022-08-02T03:00:51.373Z,16.8
2022-08-02T03:01:56.426Z,16.8
2022-08-02T03:02:51.422Z,16.7
2022-08-02T03:03:51.432Z,16.7
2022-08-02T03:04:55.545Z,16.7
2022-08-02T03:05:51.608Z,16.8
2022-08-02T03:06:51.607Z,16.8
2022-08-02T03:07:51.647Z,16.8
2022-08-02T03:08:51.699Z,16.8
2022-08-02T03:09:54.101Z,16.7
2022-08-02T03:10:51.834Z,16.6
2022-08-02T03:11:51.851Z,16.6
2022-08-02T03:12:51.882Z,16.6
2022-08-02T03:13:51.931Z,16.6
2022-08-02T03:14:51.927Z,16.7
2022-08-02T03:15:51.949Z,16.8
2022-08-02T03:16:52.005Z,16.8
2022-08-02T03:17:52.040Z,16.8
2022-08-02T03:18:52.045Z,16.7
2022-08-02T03:19:52.080Z,16.6
2022-08-02T03:20:52.131Z,16.6
2022-08-02T03:21:56.153Z,16.6
2022-08-02T03:22:52.238Z,16.7
2022-08-02T03:23:52.245Z,16.7
2022-08-02T03:24:52.465Z,16.7
2022-08-02T03:25:52.293Z,16.7
2022-08-02T03:26:52.349Z,16.7
2022-08-02T03:27:52.377Z,16.7
2022-08-02T03:28:52.377Z,16.6
2022-08-02T03:29:52.394Z,16.6
2022-08-02T03:30:52.465Z,16.6
2022-08-02T03:31:52.461Z,16.6
2022-08-02T03:32:52.521Z,16.6
2022-08-02T03:33:52.565Z,16.6
2022-08-02T03:34:52.560Z,16.6
2022-08-02T03:35:52.593Z,16.6
2022-08-02T03:36:52.617Z,16.5
2022-08-02T03:37:52.651Z,16.4
2022-08-02T03:38:52.942Z,16.4
2022-08-02T03:39:53.304Z,16.4
2022-08-02T03:40:52.783Z,16.4
2022-08-02T03:41:52.813Z,16.4
2022-08-02T03:42:52.833Z,16.4
2022-08-02T03:43:52.866Z,16.4
2022-08-02T03:44:52.880Z,16.4
2022-08-02T03:45:52.913Z,16.4
2022-08-02T03:46:52.938Z,16.5
2022-08-02T03:47:52.962Z,16.5
2022-08-02T03:48:53.084Z,16.6
2022-08-02T03:49:53.128Z,16.6
2022-08-02T03:50:53.294Z,16.7
2022-08-02T03:51:53.314Z,16.7
2022-08-02T03:52:53.384Z,16.6
2022-08-02T03:53:53.434Z,16.6
2022-08-02T03:54:53.573Z,16.5
2022-08-02T03:55:55.809Z,16.6
2022-08-02T03:56:53.679Z,16.6
2022-08-02T03:57:53.779Z,16.6
2022-08-02T03:58:53.867Z,16.6
2022-08-02T03:59:53.907Z,16.6
2022-08-02T04:00:54.043Z,16.6
2022-08-02T04:01:54.042Z,16.6
2022-08-02T04:02:54.110Z,16.6
2022-08-02T04:03:54.169Z,16.7
2022-08-02T04:04:54.198Z,16.7
2022-08-02T04:05:59.314Z,16.6
2022-08-02T04:06:54.333Z,16.6
2022-08-02T04:07:58.607Z,16.6
2022-08-02T04:08:54.384Z,16.6
2022-08-02T04:09:54.495Z,16.6
2022-08-02T04:10:54.531Z,16.6
2022-08-02T04:11:54.815Z,16.6
2022-08-02T04:12:54.672Z,16.7
2022-08-02T04:13:56.614Z,16.6
2022-08-02T04:14:54.739Z,16.5
2022-08-02T04:15:54.760Z,16.5
2022-08-02T04:16:54.799Z,16.5
2022-08-02T04:17:54.849Z,16.4
2022-08-02T04:18:54.905Z,16.4
2022-08-02T04:19:54.931Z,16.4
2022-08-02T04:20:54.977Z,16.4
2022-08-02T04:21:55.075Z,16.5
2022-08-02T04:22:55.093Z,16.4
2022-08-02T04:23:55.147Z,16.5
2022-08-02T04:24:55.330Z,16.5
2022-08-02T04:25:55.247Z,16.6
2022-08-02T04:26:55.248Z,16.6
2022-08-02T04:28:15.120Z,16.5
2022-08-02T04:28:55.302Z,16.5
2022-08-02T04:29:55.383Z,16.5
2022-08-02T04:31:25.002Z,16.4
2022-08-02T04:31:55.394Z,16.5
2022-08-02T04:32:55.443Z,16.3
2022-08-02T04:33:56.022Z,16.1
2022-08-02T04:35:18.960Z,15.9
2022-08-02T04:35:59.662Z,15.9
2022-08-02T04:36:55.813Z,16
2022-08-02T04:38:05.856Z,16.1
2022-08-02T04:38:56.129Z,15.9
2022-08-02T04:39:55.870Z,16
2022-08-02T04:40:56.506Z,16.1
2022-08-02T04:41:57.682Z,16.2
2022-08-02T04:42:56.634Z,16.4
2022-08-02T04:43:56.119Z,16.4
2022-08-02T04:44:56.636Z,16.4
2022-08-02T04:45:55.774Z,16.4
2022-08-02T04:46:55.860Z,16.5
2022-08-02T04:48:05.752Z,16.3
2022-08-02T04:48:55.911Z,16.4
2022-08-02T04:49:56.230Z,16.4
2022-08-02T04:50:56.186Z,16.3
2022-08-02T04:51:56.724Z,16.3
2022-08-02T04:52:56.064Z,16.1
2022-08-02T04:53:56.103Z,16
2022-08-02T04:54:56.694Z,15.9
2022-08-02T04:55:56.135Z,16
2022-08-02T04:56:56.197Z,16.1
2022-08-02T04:57:56.650Z,16.1
2022-08-02T04:58:56.383Z,16
2022-08-02T04:59:56.898Z,16.1
2022-08-02T05:00:58.841Z,16.1
2022-08-02T05:01:56.495Z,15.9
2022-08-02T05:02:57.790Z,15.9
2022-08-02T05:03:56.966Z,16
2022-08-02T05:04:56.784Z,16
2022-08-02T05:05:56.845Z,15.9
2022-08-02T05:06:58.121Z,16
2022-08-02T05:07:57.047Z,16
2022-08-02T05:08:57.124Z,16.1
2022-08-02T05:09:57.172Z,16.1
2022-08-02T05:10:57.801Z,16
2022-08-02T05:11:57.276Z,15.8
2022-08-02T05:12:57.659Z,15.7
2022-08-02T05:13:59.055Z,15.7
2022-08-02T05:14:57.503Z,15.8
2022-08-02T05:15:59.103Z,15.7
2022-08-02T05:16:57.568Z,15.8
2022-08-02T05:17:58.807Z,15.8
2022-08-02T05:18:59.053Z,15.8
2022-08-02T05:19:59.275Z,15.8
2022-08-02T05:20:58.299Z,15.7
2022-08-02T05:21:57.886Z,15.8
2022-08-02T05:22:58.236Z,15.7
2022-08-02T05:23:59.184Z,15.8
2022-08-02T05:24:58.897Z,15.8
2022-08-02T05:25:58.060Z,15.9
2022-08-02T05:26:58.111Z,15.9
2022-08-02T05:27:58.164Z,15.9
2022-08-02T05:28:58.798Z,15.8
2022-08-02T05:29:59.563Z,15.8
2022-08-02T05:30:58.326Z,15.7
2022-08-02T05:31:58.363Z,15.8
2022-08-02T05:32:58.445Z,15.8
2022-08-02T05:33:58.740Z,15.9
2022-08-02T05:34:58.525Z,16
2022-08-02T05:35:58.856Z,16
2022-08-02T05:36:59.402Z,16.1
2022-08-02T05:38:01.061Z,16.1
2022-08-02T05:38:59.783Z,16
2022-08-02T05:40:01.262Z,16.1
2022-08-02T05:41:00.378Z,16.2
2022-08-02T05:42:01.318Z,16.3
2022-08-02T05:42:58.750Z,16.3
2022-08-02T05:44:00.438Z,16.2
2022-08-02T05:44:58.873Z,16.3
2022-08-02T05:46:00.886Z,16.3
2022-08-02T05:46:58.885Z,16.3
2022-08-02T05:48:01.313Z,16.2
2022-08-02T05:48:58.981Z,16.2
2022-08-02T05:49:59.007Z,16.3
2022-08-02T05:50:59.055Z,16.1
2022-08-02T05:52:01.332Z,16.1
2022-08-02T05:53:01.192Z,16.2
2022-08-02T05:53:59.423Z,16.3
2022-08-02T05:54:59.143Z,16.3
2022-08-02T05:56:00.177Z,16.4
2022-08-02T05:57:01.206Z,16.5
2022-08-02T05:58:03.483Z,16.5
2022-08-02T05:58:59.828Z,16.5
2022-08-02T05:59:59.636Z,16.6
2022-08-02T06:00:59.596Z,16.6
2022-08-02T06:02:01.595Z,16.6
2022-08-02T06:02:59.469Z,16.7
2022-08-02T06:03:59.433Z,16.7
2022-08-02T06:04:59.821Z,16.7
2022-08-02T06:05:59.483Z,16.7
2022-08-02T06:06:59.526Z,16.8
2022-08-02T06:07:59.535Z,16.7
2022-08-02T06:08:59.574Z,16.8
2022-08-02T06:09:59.611Z,16.8
2022-08-02T06:10:59.841Z,16.9
2022-08-02T06:12:01.409Z,16.9
2022-08-02T06:13:01.189Z,16.9
2022-08-02T06:14:02.325Z,16.9
2022-08-02T06:14:59.975Z,16.9
2022-08-02T06:16:01.086Z,17
2022-08-02T06:17:00.106Z,17
2022-08-02T06:18:00.356Z,17.1
2022-08-02T06:19:01.477Z,17.1
2022-08-02T06:20:00.826Z,17.1
2022-08-02T06:21:03.761Z,17.2
2022-08-02T06:22:34.309Z,17.2
2022-08-02T06:23:01.833Z,17.2
2022-08-02T06:24:02.778Z,17.2
2022-08-02T06:25:02.913Z,17.1
2022-08-02T06:26:01.841Z,17.2
2022-08-02T06:27:00.743Z,17.2
2022-08-02T06:28:00.812Z,17.3
2022-08-02T06:29:00.906Z,17.3
2022-08-02T06:30:00.941Z,17.3
2022-08-02T06:31:02.709Z,17.4
2022-08-02T06:32:01.348Z,17.5
2022-08-02T06:33:01.075Z,17.6
2022-08-02T06:34:01.244Z,17.6
2022-08-02T06:35:01.272Z,17.7
2022-08-02T06:36:01.234Z,17.7
2022-08-02T06:37:01.266Z,17.8
2022-08-02T06:38:01.321Z,17.9
2022-08-02T06:39:01.356Z,17.9
2022-08-02T06:40:01.414Z,17.8
2022-08-02T06:41:01.642Z,17.9
2022-08-02T06:42:01.511Z,18
2022-08-02T06:43:01.634Z,18
2022-08-02T06:44:19.878Z,18
2022-08-02T06:45:01.682Z,18.1
2022-08-02T06:46:32.583Z,18.2
2022-08-02T06:47:10.592Z,18.2
2022-08-02T06:48:03.384Z,18.1
2022-08-02T06:49:02.061Z,18.2
2022-08-02T06:50:01.992Z,18.4
2022-08-02T06:51:03.561Z,18.5
2022-08-02T06:52:01.995Z,18.5
2022-08-02T06:53:02.010Z,18.5
2022-08-02T06:54:03.964Z,18.6
2022-08-02T06:55:02.295Z,18.5
2022-08-02T06:56:02.121Z,18.6
2022-08-02T06:57:03.720Z,18.7
2022-08-02T06:58:03.619Z,18.7
2022-08-02T06:59:06.037Z,18.8
2022-08-02T07:00:02.358Z,18.8
2022-08-02T07:01:04.474Z,18.8
2022-08-02T07:02:02.581Z,18.9
2022-08-02T07:03:03.012Z,18.9
2022-08-02T07:04:04.401Z,18.9
2022-08-02T07:05:03.983Z,19.1
2022-08-02T07:06:02.642Z,19.1
2022-08-02T07:07:02.898Z,19.1
2022-08-02T07:08:03.491Z,19.1
2022-08-02T07:09:19.797Z,19.2
2022-08-02T07:10:02.635Z,19.3
2022-08-02T07:11:03.958Z,19.4
2022-08-02T07:12:02.676Z,19.5
2022-08-02T07:13:04.233Z,19.5
2022-08-02T07:14:05.253Z,19.4
2022-08-02T07:15:02.862Z,19.5
2022-08-02T07:16:02.939Z,19.6
2022-08-02T07:17:04.892Z,19.6
2022-08-02T07:18:05.004Z,19.7
2022-08-02T07:19:02.904Z,19.8
2022-08-02T07:20:04.808Z,19.7
2022-08-02T07:21:03.129Z,19.7
2022-08-02T07:22:03.537Z,19.8
2022-08-02T07:23:03.079Z,19.8
2022-08-02T07:24:03.699Z,19.9
2022-08-02T07:25:03.231Z,19.9
2022-08-02T07:26:04.774Z,19.8
2022-08-02T07:27:12.202Z,19.8
2022-08-02T07:28:03.450Z,20
2022-08-02T07:29:04.514Z,20.1
2022-08-02T07:30:04.414Z,20.3
2022-08-02T07:31:03.660Z,20.4
2022-08-02T07:32:03.730Z,20.4
2022-08-02T07:33:03.787Z,20.4
2022-08-02T07:34:03.844Z,20.3
2022-08-02T07:35:04.086Z,20.3
2022-08-02T07:36:04.758Z,20.3
2022-08-02T07:37:04.300Z,20.2
2022-08-02T07:38:04.187Z,20.2
2022-08-02T07:39:04.207Z,20.4
2022-08-02T07:40:06.436Z,20.6
2022-08-02T07:41:04.506Z,20.7
2022-08-02T07:42:06.309Z,20.7
2022-08-02T07:43:04.587Z,20.8
2022-08-02T07:44:04.713Z,20.9
2022-08-02T07:45:04.615Z,21
2022-08-02T07:46:04.820Z,21.1
2022-08-02T07:47:04.602Z,21
2022-08-02T07:48:06.663Z,20.8
2022-08-02T07:49:06.841Z,20.8
2022-08-02T07:50:05.435Z,20.8
2022-08-02T07:51:05.048Z,21
2022-08-02T07:52:05.872Z,21.2
2022-08-02T07:53:04.902Z,21.2
2022-08-02T07:54:05.061Z,21.2
2022-08-02T07:55:05.020Z,21.1
2022-08-02T07:56:06.811Z,21.3
2022-08-02T07:57:05.367Z,21.5
2022-08-02T07:58:05.504Z,21.6
2022-08-02T07:59:05.190Z,21.7
2022-08-02T08:00:05.559Z,21.7
2022-08-02T08:01:05.294Z,21.7
2022-08-02T08:02:05.917Z,21.8
2022-08-02T08:03:05.406Z,21.9
2022-08-02T08:04:05.367Z,21.9
2022-08-02T08:05:05.410Z,21.9
2022-08-02T08:06:05.758Z,21.9
2022-08-02T08:07:05.530Z,22.1
2022-08-02T08:08:07.517Z,22.2
2022-08-02T08:09:05.566Z,22
2022-08-02T08:10:05.582Z,22
2022-08-02T08:11:07.357Z,22.1
2022-08-02T08:12:05.679Z,22.3
2022-08-02T08:13:06.320Z,22.5
2022-08-02T08:14:05.758Z,22.8
2022-08-02T08:15:06.210Z,22.6
2022-08-02T08:16:07.082Z,22.6
2022-08-02T08:17:06.802Z,22.3
2022-08-02T08:18:05.883Z,22.4
2022-08-02T08:19:11.254Z,22.5
2022-08-02T08:20:06.174Z,22.4
2022-08-02T08:21:06.208Z,22.1
2022-08-02T08:22:06.116Z,22.1
2022-08-02T08:23:06.940Z,22.4
2022-08-02T08:24:06.542Z,22.7
2022-08-02T08:25:07.924Z,22.9
2022-08-02T08:26:15.366Z,23
2022-08-02T08:27:11.195Z,22.9
2022-08-02T08:28:07.078Z,22.9
2022-08-02T08:29:06.719Z,22.9
2022-08-02T08:30:06.338Z,23.1
2022-08-02T08:31:06.321Z,23.3
2022-08-02T08:33:17.975Z,23.3
2022-08-02T08:34:06.658Z,23
2022-08-02T08:35:06.625Z,23.2
2022-08-02T08:36:09.649Z,23.3
2022-08-02T08:37:06.892Z,23.5
2022-08-02T08:39:57.721Z,23.4
2022-08-02T08:40:06.952Z,23.3
2022-08-02T08:41:08.270Z,23.3
2022-08-02T08:42:08.955Z,23.5
2022-08-02T08:43:08.062Z,23.5
2022-08-02T08:44:07.173Z,23.1
2022-08-02T08:45:09.370Z,23.3
2022-08-02T08:46:16.875Z,23.7
2022-08-02T08:49:18.184Z,23.6
2022-08-02T08:49:34.728Z,23.8
2022-08-02T08:49:35.272Z,23.7
2022-08-02T08:50:10.476Z,23.6
2022-08-02T08:51:07.800Z,23.9
2022-08-02T08:52:08.069Z,24.1
2022-08-02T08:53:09.076Z,23.9
2022-08-02T08:54:10.728Z,23.9
2022-08-02T08:55:09.210Z,24.1
2022-08-02T08:56:07.935Z,24.1
2022-08-02T08:57:09.771Z,24.2
2022-08-02T08:58:10.939Z,24.3
2022-08-02T08:59:08.173Z,24.2
2022-08-02T09:00:09.488Z,24.4
2022-08-02T09:01:10.047Z,24.5
2022-08-02T09:02:17.914Z,24.5
2022-08-02T09:03:09.202Z,24.4
2022-08-02T09:04:11.167Z,24.4
2022-08-02T09:05:09.993Z,24.5
2022-08-02T09:06:10.852Z,24.6
2022-08-02T09:07:10.641Z,24.5
2022-08-02T09:08:13.534Z,24.7
2022-08-02T09:09:08.992Z,24.9
2022-08-02T09:10:10.508Z,24.7
2022-08-02T09:11:08.945Z,24.6
2022-08-02T09:12:12.669Z,24.8
2022-08-02T09:13:30.849Z,25.1
2022-08-02T09:14:11.559Z,25.2
2022-08-02T09:15:14.307Z,25.1
2022-08-02T09:16:11.935Z,25
2022-08-02T09:17:08.885Z,24.9
2022-08-02T09:18:11.564Z,25
2022-08-02T09:19:08.944Z,24.9
2022-08-02T09:20:09.448Z,24.9
2022-08-02T09:21:12.581Z,25
2022-08-02T09:22:09.924Z,25.3
2022-08-02T09:23:09.966Z,25.4
2022-08-02T09:24:10.004Z,25.5
2022-08-02T09:25:09.751Z,25.2
2022-08-02T09:26:14.431Z,24.9
2022-08-02T09:27:09.294Z,24.7
2022-08-02T09:28:13.119Z,24.5
2022-08-02T09:29:13.998Z,25
2022-08-02T09:30:13.833Z,25.2
2022-08-02T09:31:09.306Z,25.5
2022-08-02T09:32:09.724Z,25.6
2022-08-02T09:33:09.365Z,25.8
2022-08-02T09:34:09.427Z,25.6
2022-08-02T09:35:11.217Z,25.4
2022-08-02T09:36:10.144Z,25.3
2022-08-02T09:37:12.511Z,25.3
2022-08-02T09:38:11.228Z,25.2
2022-08-02T09:39:09.848Z,25.4
2022-08-02T09:40:11.038Z,25.7
2022-08-02T09:41:10.445Z,25.6
2022-08-02T09:42:13.507Z,25.3
2022-08-02T09:43:10.938Z,25.2
2022-08-02T09:44:12.814Z,25.5
2022-08-02T09:45:10.339Z,25.8
2022-08-02T09:46:09.895Z,25.9
2022-08-02T09:48:10.799Z,26
2022-08-02T09:48:17.187Z,26.1
2022-08-02T09:49:10.298Z,26.2
2022-08-02T09:50:14.664Z,26.4
2022-08-02T09:51:10.865Z,26.5
2022-08-02T09:52:11.293Z,26.5
2022-08-02T09:53:10.402Z,26.4
2022-08-02T09:54:10.895Z,25.7
2022-08-02T09:55:10.548Z,25.9
2022-08-02T09:56:30.281Z,26.3
2022-08-02T09:57:10.605Z,26.5
2022-08-02T09:58:10.757Z,26
2022-08-02T09:59:10.791Z,26.2
2022-08-02T10:00:14.132Z,26.4
2022-08-02T10:01:11.446Z,26.3
2022-08-02T10:02:14.724Z,26.3
2022-08-02T10:03:19.347Z,25.9
2022-08-02T10:04:17.105Z,25.9
2022-08-02T10:05:11.914Z,26.1
2022-08-02T10:06:11.294Z,26.1
2022-08-02T10:07:11.379Z,26.4
2022-08-02T10:08:11.398Z,26.2
2022-08-02T10:09:11.600Z,26.2
2022-08-02T10:10:13.801Z,25.9
2022-08-02T10:11:12.011Z,25.9
2022-08-02T10:12:12.065Z,26.2
2022-08-02T10:13:20.105Z,26.3
2022-08-02T10:14:12.794Z,26.6
2022-08-02T10:15:12.196Z,26.7
2022-08-02T10:16:13.110Z,26.9
2022-08-02T10:17:12.591Z,26.6
2022-08-02T10:18:36.129Z,26.4
2022-08-02T10:19:13.388Z,26.2
2022-08-02T10:20:12.096Z,26.4
2022-08-02T10:21:14.241Z,26.6
2022-08-02T10:22:12.494Z,26.9
2022-08-02T10:23:12.277Z,27.2
2022-08-02T10:24:12.283Z,27.3
2022-08-02T10:25:12.309Z,27.7
2022-08-02T10:26:14.851Z,27.5
2022-08-02T10:27:12.531Z,27.3
2022-08-02T10:28:16.335Z,26.9
2022-08-02T10:29:12.458Z,26.9
2022-08-02T10:30:12.540Z,27.2
2022-08-02T10:31:12.540Z,27.3
2022-08-02T10:32:17.479Z,27.3
2022-08-02T10:33:14.775Z,27.3
2022-08-02T10:34:19.249Z,27.4
2022-08-02T10:35:19.294Z,27.3
2022-08-02T10:36:18.040Z,26.9
2022-08-02T10:37:13.027Z,27
2022-08-02T10:38:12.753Z,27.1
2022-08-02T10:39:13.965Z,27.3
2022-08-02T10:40:13.115Z,27.7
2022-08-02T10:41:13.126Z,27.9
2022-08-02T10:42:15.982Z,28
2022-08-02T10:43:13.262Z,27.8
2022-08-02T10:44:24.113Z,27.5
2022-08-02T10:45:12.968Z,27.2
2022-08-02T10:46:13.120Z,27.2
2022-08-02T10:47:15.050Z,27.3
2022-08-02T10:48:16.239Z,27.1
2022-08-02T10:49:41.490Z,26.7
2022-08-02T10:50:14.343Z,26.4
2022-08-02T10:51:14.749Z,26.5
2022-08-02T10:52:13.720Z,26.6
2022-08-02T10:53:20.136Z,26.5
2022-08-02T10:54:13.297Z,26.4
2022-08-02T10:55:14.760Z,26.1
2022-08-02T10:56:13.528Z,25.9
2022-08-02T10:57:15.179Z,26
2022-08-02T10:58:13.437Z,26.3
2022-08-02T10:59:13.666Z,26.3
2022-08-02T11:00:17.449Z,26.3
2022-08-02T11:01:16.413Z,26.3
2022-08-02T11:02:14.369Z,26.4
2022-08-02T11:03:14.136Z,26.5
2022-08-02T11:04:13.960Z,26.6
2022-08-02T11:05:14.012Z,27.1
2022-08-02T11:06:24.930Z,27.4
2022-08-02T11:07:14.998Z,27.8
2022-08-02T11:08:14.157Z,27.7
2022-08-02T11:09:15.808Z,27.7
2022-08-02T11:10:16.197Z,27.7
2022-08-02T11:11:14.634Z,27.8
2022-08-02T11:12:14.762Z,27.8
2022-08-02T11:13:16.307Z,27.7
2022-08-02T11:14:14.574Z,27.8
2022-08-02T11:15:14.616Z,28
2022-08-02T11:16:16.568Z,28.2
2022-08-02T11:17:16.930Z,27.9
2022-08-02T11:18:19.203Z,27.5
2022-08-02T11:19:19.871Z,27.3
2022-08-02T11:20:16.569Z,27.1
2022-08-02T11:21:16.313Z,26.9
2022-08-02T11:22:15.694Z,26.7
2022-08-02T11:23:15.038Z,26.7
2022-08-02T11:24:15.500Z,26.7
2022-08-02T11:25:15.154Z,26.6
2022-08-02T11:26:15.233Z,26.7
2022-08-02T11:27:16.848Z,26.5
2022-08-02T11:28:16.931Z,26.5
2022-08-02T11:29:16.329Z,26.7
2022-08-02T11:30:17.401Z,26.6
2022-08-02T11:31:20.469Z,26.5
2022-08-02T11:32:17.852Z,26.7
2022-08-02T11:33:16.100Z,26.9
2022-08-02T11:34:36.490Z,27.2
2022-08-02T11:35:15.687Z,27.5
2022-08-02T11:36:15.688Z,27.7
2022-08-02T11:37:15.830Z,28.1
2022-08-02T11:38:17.278Z,28.2
2022-08-02T11:39:16.058Z,28.4
2022-08-02T11:40:19.236Z,28.4
2022-08-02T11:41:15.872Z,28.9
2022-08-02T11:42:15.884Z,28.5
2022-08-02T11:43:15.942Z,28
2022-08-02T11:44:16.187Z,28.2
2022-08-02T11:45:20.747Z,28
2022-08-02T11:46:17.134Z,27.9
2022-08-02T11:47:16.991Z,27.6
2022-08-02T11:48:17.332Z,27.4
2022-08-02T11:49:16.180Z,27.5
2022-08-02T11:50:18.005Z,27.5
2022-08-02T11:51:17.866Z,27.5
2022-08-02T11:52:16.396Z,27.3
2022-08-02T11:53:16.311Z,27.3
2022-08-02T11:54:22.318Z,27.3
2022-08-02T11:55:16.350Z,27.1
2022-08-02T11:56:25.360Z,27.1
2022-08-02T11:57:20.438Z,27
2022-08-02T11:58:18.176Z,26.9
2022-08-02T11:59:18.690Z,27.1
2022-08-02T12:00:16.591Z,27.5
2022-08-02T12:01:16.574Z,27.9
2022-08-02T12:02:18.698Z,28
2022-08-02T12:03:19.813Z,27.9
2022-08-02T12:04:16.669Z,27.8
2022-08-02T12:05:17.401Z,27.5
2022-08-02T12:06:19.176Z,27.5
2022-08-02T12:07:16.754Z,27.2
2022-08-02T12:08:19.178Z,27.3
2022-08-02T12:09:19.148Z,27.6
2022-08-02T12:10:18.721Z,28
2022-08-02T12:11:17.023Z,28.3
2022-08-02T12:12:18.066Z,28.2
2022-08-02T12:13:17.147Z,27.8
2022-08-02T12:14:17.294Z,27.8
2022-08-02T12:15:22.251Z,27.9
2022-08-02T12:16:37.402Z,28
2022-08-02T12:17:17.759Z,27.9
2022-08-02T12:18:17.767Z,28.3
2022-08-02T12:19:17.499Z,28.5
2022-08-02T12:20:20.132Z,28.6
2022-08-02T12:21:17.660Z,28.5
2022-08-02T12:22:18.262Z,28.6
2022-08-02T12:23:17.863Z,28.5
2022-08-02T12:24:22.960Z,28.6
2022-08-02T12:25:33.785Z,28.8
2022-08-02T12:26:17.919Z,28.8
2022-08-02T12:27:17.946Z,28.7
2022-08-02T12:28:54.506Z,28.9
2022-08-02T12:29:56.188Z,29
2022-08-02T12:30:27.454Z,29
2022-08-02T12:31:21.221Z,28.8
2022-08-02T12:32:18.235Z,28.5
2022-08-02T12:33:20.715Z,28.4
2022-08-02T12:34:21.653Z,28.9
2022-08-02T12:35:26.199Z,29
2022-08-02T12:36:18.588Z,28.7
2022-08-02T12:37:23.385Z,28.6
2022-08-02T12:38:23.466Z,28.7
2022-08-02T12:39:19.603Z,28.7
2022-08-02T12:40:18.578Z,28.8
2022-08-02T12:41:30.632Z,28.9
2022-08-02T12:42:22.131Z,28.8
2022-08-02T12:43:18.960Z,28.9
2022-08-02T12:44:19.726Z,29
2022-08-02T12:45:18.847Z,29.1
2022-08-02T12:46:18.897Z,29.2
2022-08-02T12:47:19.092Z,29.3
2022-08-02T12:48:21.770Z,29.1
2022-08-02T12:49:19.452Z,29
2022-08-02T12:50:20.776Z,29
2022-08-02T12:51:20.779Z,29.1
2022-08-02T12:52:25.732Z,29.1
2022-08-02T12:53:20.519Z,29.1
2022-08-02T12:54:19.145Z,28.9
2022-08-02T12:55:19.231Z,29
2022-08-02T12:56:24.547Z,28.9
2022-08-02T12:57:20.430Z,29
2022-08-02T12:58:19.321Z,29.1
2022-08-02T12:59:19.348Z,28.9
2022-08-02T13:00:22.059Z,28.8
2022-08-02T13:01:20.019Z,28.7
2022-08-02T13:02:20.137Z,28.9
2022-08-02T13:04:08.842Z,28.8
2022-08-02T13:04:20.730Z,28.6
2022-08-02T13:05:24.521Z,28.5
2022-08-02T13:06:42.852Z,28.5
2022-08-02T13:07:20.947Z,28.4
2022-08-02T13:08:19.880Z,28.5
2022-08-02T13:09:22.988Z,28.5
2022-08-02T13:10:19.802Z,28.5
2022-08-02T13:11:22.167Z,28.5
2022-08-02T13:12:21.150Z,28.5
2022-08-02T13:13:20.435Z,28.5
2022-08-02T13:14:29.924Z,28.6
2022-08-02T13:15:26.414Z,28.6
2022-08-02T13:16:30.406Z,28.5
2022-08-02T13:17:19.992Z,28.7
2022-08-02T13:18:20.037Z,28.8
2022-08-02T13:19:20.517Z,28.7
2022-08-02T13:20:20.060Z,28.9
2022-08-02T13:21:40.536Z,29.1
2022-08-02T13:22:20.503Z,29.3
2022-08-02T13:23:24.206Z,29.6
2022-08-02T13:24:33.052Z,29.6
2022-08-02T13:25:20.761Z,29.7
2022-08-02T13:26:22.292Z,29.8